sensor_id;sensor_type;location;lat;lon;timestamp;P1;durP1;ratioP1;P2;durP2;ratioP2
24567;SDS011;12731;52.182;8.716;2023-03-03T00:00:41;46.80;;;25.80;;
24567;SDS011;12731;52.182;8.716;2023-03-03T00:03:08;46.33;;;27.00;;
24567;SDS011;12731;52.182;8.716;2023-03-03T00:05:36;46.35;;;25.50;;
24567;SDS011;12731;52.182;8.716;2023-03-03T00:08:03;54.72;;;29.67;;
24567;SDS011;12731;52.182;8.716;2023-03-03T00:10:29;56.95;;;30.05;;
24567;SDS011;12731;52.182;8.716;2023-03-03T00:12:56;56.60;;;29.40;;
24567;SDS011;12731;52.182;8.716;2023-03-03T00:15:23;51.20;;;27.95;;
24567;SDS011;12731;52.182;8.716;2023-03-03T00:17:50;55.08;;;28.42;;
24567;SDS011;12731;52.182;8.716;2023-03-03T00:20:32;53.75;;;28.52;;
24567;SDS011;12731;52.182;8.716;2023-03-03T00:23:06;48.78;;;27.40;;
24567;SDS011;12731;52.182;8.716;2023-03-03T00:25:44;50.78;;;28.25;;
24567;SDS011;12731;52.182;8.716;2023-03-03T00:28:17;49.13;;;26.70;;
24567;SDS011;12731;52.182;8.716;2023-03-03T00:31:11;56.95;;;30.05;;
24567;SDS011;12731;52.182;8.716;2023-03-03T00:33:42;60.03;;;30.65;;
24567;SDS011;12731;52.182;8.716;2023-03-03T00:38:42;60.42;;;31.35;;
24567;SDS011;12731;52.182;8.716;2023-03-03T00:41:25;56.58;;;30.60;;
24567;SDS011;12731;52.182;8.716;2023-03-03T00:43:52;60.08;;;30.98;;
24567;SDS011;12731;52.182;8.716;2023-03-03T00:46:20;49.25;;;27.17;;
24567;SDS011;12731;52.182;8.716;2023-03-03T00:48:49;50.45;;;27.90;;
24567;SDS011;12731;52.182;8.716;2023-03-03T00:53:55;45.88;;;25.27;;
24567;SDS011;12731;52.182;8.716;2023-03-03T00:56:23;41.67;;;24.25;;
24567;SDS011;12731;52.182;8.716;2023-03-03T00:58:50;35.95;;;21.95;;
24567;SDS011;12731;52.182;8.716;2023-03-03T01:01:16;31.42;;;20.48;;
24567;SDS011;12731;52.182;8.716;2023-03-03T01:03:43;31.15;;;20.10;;
24567;SDS011;12731;52.182;8.716;2023-03-03T01:06:10;29.50;;;19.00;;
24567;SDS011;12731;52.182;8.716;2023-03-03T01:08:37;28.25;;;18.02;;
24567;SDS011;12731;52.182;8.716;2023-03-03T01:11:08;30.85;;;19.90;;
24567;SDS011;12731;52.182;8.716;2023-03-03T01:13:37;31.13;;;20.13;;
24567;SDS011;12731;52.182;8.716;2023-03-03T01:16:05;32.17;;;19.92;;
24567;SDS011;12731;52.182;8.716;2023-03-03T01:18:32;34.95;;;20.33;;
24567;SDS011;12731;52.182;8.716;2023-03-03T01:20:59;33.40;;;21.13;;
24567;SDS011;12731;52.182;8.716;2023-03-03T01:23:27;41.65;;;23.95;;
24567;SDS011;12731;52.182;8.716;2023-03-03T01:25:53;47.88;;;26.60;;
24567;SDS011;12731;52.182;8.716;2023-03-03T01:28:21;57.00;;;29.65;;
24567;SDS011;12731;52.182;8.716;2023-03-03T01:30:47;59.30;;;31.70;;
24567;SDS011;12731;52.182;8.716;2023-03-03T01:33:13;51.25;;;28.65;;
24567;SDS011;12731;52.182;8.716;2023-03-03T01:35:46;54.88;;;29.02;;
24567;SDS011;12731;52.182;8.716;2023-03-03T01:38:13;54.28;;;30.60;;
24567;SDS011;12731;52.182;8.716;2023-03-03T01:40:40;56.08;;;29.42;;
24567;SDS011;12731;52.182;8.716;2023-03-03T01:43:06;61.35;;;31.67;;
24567;SDS011;12731;52.182;8.716;2023-03-03T01:45:41;63.85;;;31.50;;
24567;SDS011;12731;52.182;8.716;2023-03-03T01:48:21;63.78;;;30.75;;
24567;SDS011;12731;52.182;8.716;2023-03-03T01:50:51;67.00;;;31.25;;
24567;SDS011;12731;52.182;8.716;2023-03-03T01:53:32;70.28;;;33.00;;
24567;SDS011;12731;52.182;8.716;2023-03-03T01:56:02;68.72;;;30.42;;
24567;SDS011;12731;52.182;8.716;2023-03-03T01:58:32;66.28;;;31.23;;
24567;SDS011;12731;52.182;8.716;2023-03-03T02:01:03;79.32;;;33.25;;
24567;SDS011;12731;52.182;8.716;2023-03-03T02:03:32;73.40;;;32.38;;
24567;SDS011;12731;52.182;8.716;2023-03-03T02:06:00;73.18;;;32.60;;
24567;SDS011;12731;52.182;8.716;2023-03-03T02:08:32;68.30;;;31.73;;
24567;SDS011;12731;52.182;8.716;2023-03-03T02:11:01;74.27;;;32.33;;
24567;SDS011;12731;52.182;8.716;2023-03-03T02:13:28;84.32;;;33.35;;
24567;SDS011;12731;52.182;8.716;2023-03-03T02:15:55;77.18;;;32.75;;
24567;SDS011;12731;52.182;8.716;2023-03-03T02:18:22;77.05;;;33.45;;
24567;SDS011;12731;52.182;8.716;2023-03-03T02:20:52;82.00;;;33.22;;
24567;SDS011;12731;52.182;8.716;2023-03-03T02:23:24;87.63;;;33.65;;
24567;SDS011;12731;52.182;8.716;2023-03-03T02:26:08;81.07;;;32.75;;
24567;SDS011;12731;52.182;8.716;2023-03-03T02:28:39;83.82;;;33.03;;
24567;SDS011;12731;52.182;8.716;2023-03-03T02:31:07;85.28;;;34.40;;
24567;SDS011;12731;52.182;8.716;2023-03-03T02:36:12;74.70;;;28.92;;
24567;SDS011;12731;52.182;8.716;2023-03-03T02:38:45;71.78;;;28.80;;
24567;SDS011;12731;52.182;8.716;2023-03-03T02:41:17;78.22;;;30.02;;
24567;SDS011;12731;52.182;8.716;2023-03-03T02:43:58;71.10;;;28.30;;
24567;SDS011;12731;52.182;8.716;2023-03-03T02:46:27;76.90;;;30.45;;
24567;SDS011;12731;52.182;8.716;2023-03-03T02:48:57;85.35;;;32.25;;
24567;SDS011;12731;52.182;8.716;2023-03-03T02:51:23;86.55;;;32.35;;
24567;SDS011;12731;52.182;8.716;2023-03-03T02:53:50;79.80;;;30.50;;
24567;SDS011;12731;52.182;8.716;2023-03-03T02:56:16;89.53;;;32.53;;
24567;SDS011;12731;52.182;8.716;2023-03-03T02:58:43;87.05;;;33.30;;
24567;SDS011;12731;52.182;8.716;2023-03-03T03:01:09;88.15;;;32.05;;
24567;SDS011;12731;52.182;8.716;2023-03-03T03:03:36;91.55;;;34.65;;
24567;SDS011;12731;52.182;8.716;2023-03-03T03:06:02;88.43;;;33.83;;
24567;SDS011;12731;52.182;8.716;2023-03-03T03:08:29;88.65;;;33.50;;
24567;SDS011;12731;52.182;8.716;2023-03-03T03:10:56;88.32;;;33.15;;
24567;SDS011;12731;52.182;8.716;2023-03-03T03:13:23;88.13;;;32.88;;
24567;SDS011;12731;52.182;8.716;2023-03-03T03:15:50;85.47;;;33.20;;
24567;SDS011;12731;52.182;8.716;2023-03-03T03:18:17;96.55;;;34.33;;
24567;SDS011;12731;52.182;8.716;2023-03-03T03:20:43;94.18;;;34.33;;
24567;SDS011;12731;52.182;8.716;2023-03-03T03:23:12;92.18;;;34.35;;
24567;SDS011;12731;52.182;8.716;2023-03-03T03:25:38;89.32;;;32.85;;
24567;SDS011;12731;52.182;8.716;2023-03-03T03:28:10;96.15;;;34.15;;
24567;SDS011;12731;52.182;8.716;2023-03-03T03:30:37;89.47;;;34.55;;
24567;SDS011;12731;52.182;8.716;2023-03-03T03:33:04;86.88;;;33.38;;
24567;SDS011;12731;52.182;8.716;2023-03-03T03:35:32;94.03;;;33.85;;
24567;SDS011;12731;52.182;8.716;2023-03-03T03:37:59;93.80;;;35.15;;
24567;SDS011;12731;52.182;8.716;2023-03-03T03:40:26;92.38;;;34.15;;
24567;SDS011;12731;52.182;8.716;2023-03-03T03:42:52;85.32;;;30.75;;
24567;SDS011;12731;52.182;8.716;2023-03-03T03:45:19;92.93;;;33.20;;
24567;SDS011;12731;52.182;8.716;2023-03-03T03:47:45;88.53;;;32.85;;
24567;SDS011;12731;52.182;8.716;2023-03-03T03:50:12;92.50;;;31.48;;
24567;SDS011;12731;52.182;8.716;2023-03-03T03:52:39;97.57;;;34.78;;
24567;SDS011;12731;52.182;8.716;2023-03-03T03:55:05;87.05;;;32.45;;
24567;SDS011;12731;52.182;8.716;2023-03-03T03:57:32;95.13;;;34.83;;
24567;SDS011;12731;52.182;8.716;2023-03-03T03:59:58;100.78;;;34.30;;
24567;SDS011;12731;52.182;8.716;2023-03-03T04:02:25;103.68;;;34.40;;
24567;SDS011;12731;52.182;8.716;2023-03-03T04:04:51;108.15;;;35.75;;
24567;SDS011;12731;52.182;8.716;2023-03-03T04:07:18;91.55;;;33.10;;
24567;SDS011;12731;52.182;8.716;2023-03-03T04:09:44;85.95;;;32.85;;
24567;SDS011;12731;52.182;8.716;2023-03-03T04:12:11;88.38;;;33.22;;
24567;SDS011;12731;52.182;8.716;2023-03-03T04:14:38;92.40;;;33.75;;
24567;SDS011;12731;52.182;8.716;2023-03-03T04:17:04;93.90;;;32.92;;
24567;SDS011;12731;52.182;8.716;2023-03-03T04:19:30;97.43;;;34.42;;
24567;SDS011;12731;52.182;8.716;2023-03-03T04:21:57;88.45;;;31.83;;
24567;SDS011;12731;52.182;8.716;2023-03-03T04:24:23;89.95;;;32.10;;
24567;SDS011;12731;52.182;8.716;2023-03-03T04:26:50;89.60;;;31.65;;
24567;SDS011;12731;52.182;8.716;2023-03-03T04:29:16;94.05;;;32.13;;
24567;SDS011;12731;52.182;8.716;2023-03-03T04:31:42;88.82;;;32.38;;
24567;SDS011;12731;52.182;8.716;2023-03-03T04:34:09;89.18;;;32.78;;
24567;SDS011;12731;52.182;8.716;2023-03-03T04:36:35;90.65;;;32.00;;
24567;SDS011;12731;52.182;8.716;2023-03-03T04:39:02;84.47;;;31.70;;
24567;SDS011;12731;52.182;8.716;2023-03-03T04:41:28;89.10;;;31.40;;
24567;SDS011;12731;52.182;8.716;2023-03-03T04:43:55;86.43;;;30.83;;
24567;SDS011;12731;52.182;8.716;2023-03-03T04:46:21;86.88;;;31.38;;
24567;SDS011;12731;52.182;8.716;2023-03-03T04:48:47;89.30;;;32.20;;
24567;SDS011;12731;52.182;8.716;2023-03-03T04:51:14;82.47;;;30.20;;
24567;SDS011;12731;52.182;8.716;2023-03-03T04:53:41;87.90;;;31.55;;
24567;SDS011;12731;52.182;8.716;2023-03-03T04:56:08;86.10;;;31.95;;
24567;SDS011;12731;52.182;8.716;2023-03-03T04:58:34;83.07;;;32.85;;
24567;SDS011;12731;52.182;8.716;2023-03-03T05:01:01;83.85;;;30.73;;
24567;SDS011;12731;52.182;8.716;2023-03-03T05:03:27;82.15;;;30.08;;
24567;SDS011;12731;52.182;8.716;2023-03-03T05:05:53;82.80;;;30.70;;
24567;SDS011;12731;52.182;8.716;2023-03-03T05:08:20;83.35;;;30.65;;
24567;SDS011;12731;52.182;8.716;2023-03-03T05:10:50;90.25;;;32.72;;
24567;SDS011;12731;52.182;8.716;2023-03-03T05:13:17;87.68;;;31.42;;
24567;SDS011;12731;52.182;8.716;2023-03-03T05:15:48;92.20;;;32.65;;
24567;SDS011;12731;52.182;8.716;2023-03-03T05:18:15;97.47;;;33.85;;
24567;SDS011;12731;52.182;8.716;2023-03-03T05:20:42;90.07;;;33.42;;
24567;SDS011;12731;52.182;8.716;2023-03-03T05:23:09;93.88;;;34.13;;
24567;SDS011;12731;52.182;8.716;2023-03-03T05:25:35;102.13;;;35.80;;
24567;SDS011;12731;52.182;8.716;2023-03-03T05:28:03;97.15;;;33.15;;
24567;SDS011;12731;52.182;8.716;2023-03-03T05:30:29;95.85;;;34.17;;
24567;SDS011;12731;52.182;8.716;2023-03-03T05:32:56;95.13;;;34.60;;
24567;SDS011;12731;52.182;8.716;2023-03-03T05:35:24;99.38;;;34.67;;
24567;SDS011;12731;52.182;8.716;2023-03-03T05:37:51;102.03;;;36.00;;
24567;SDS011;12731;52.182;8.716;2023-03-03T05:40:17;103.05;;;35.60;;
24567;SDS011;12731;52.182;8.716;2023-03-03T05:42:44;112.15;;;37.85;;
24567;SDS011;12731;52.182;8.716;2023-03-03T05:45:11;110.07;;;37.88;;
24567;SDS011;12731;52.182;8.716;2023-03-03T05:47:38;114.10;;;37.97;;
24567;SDS011;12731;52.182;8.716;2023-03-03T05:50:04;118.43;;;39.90;;
24567;SDS011;12731;52.182;8.716;2023-03-03T05:52:31;115.93;;;39.78;;
24567;SDS011;12731;52.182;8.716;2023-03-03T05:54:57;113.60;;;39.10;;
24567;SDS011;12731;52.182;8.716;2023-03-03T05:57:24;115.45;;;38.35;;
24567;SDS011;12731;52.182;8.716;2023-03-03T05:59:50;122.70;;;40.28;;
24567;SDS011;12731;52.182;8.716;2023-03-03T06:02:16;115.38;;;40.47;;
24567;SDS011;12731;52.182;8.716;2023-03-03T06:04:43;121.80;;;41.08;;
24567;SDS011;12731;52.182;8.716;2023-03-03T06:07:09;127.10;;;42.63;;
24567;SDS011;12731;52.182;8.716;2023-03-03T06:09:36;124.05;;;41.13;;
24567;SDS011;12731;52.182;8.716;2023-03-03T06:12:02;109.82;;;38.88;;
24567;SDS011;12731;52.182;8.716;2023-03-03T06:14:29;111.32;;;37.70;;
24567;SDS011;12731;52.182;8.716;2023-03-03T06:16:55;121.32;;;39.58;;
24567;SDS011;12731;52.182;8.716;2023-03-03T06:19:23;105.25;;;38.30;;
24567;SDS011;12731;52.182;8.716;2023-03-03T06:21:49;106.07;;;38.22;;
24567;SDS011;12731;52.182;8.716;2023-03-03T06:24:16;106.60;;;38.03;;
24567;SDS011;12731;52.182;8.716;2023-03-03T06:26:42;96.75;;;35.85;;
24567;SDS011;12731;52.182;8.716;2023-03-03T06:29:09;100.90;;;37.30;;
24567;SDS011;12731;52.182;8.716;2023-03-03T06:31:35;108.32;;;39.20;;
24567;SDS011;12731;52.182;8.716;2023-03-03T06:34:02;96.45;;;35.50;;
24567;SDS011;12731;52.182;8.716;2023-03-03T06:36:28;102.63;;;35.85;;
24567;SDS011;12731;52.182;8.716;2023-03-03T06:38:54;96.10;;;34.38;;
24567;SDS011;12731;52.182;8.716;2023-03-03T06:41:21;101.47;;;35.58;;
24567;SDS011;12731;52.182;8.716;2023-03-03T06:43:47;103.15;;;37.80;;
24567;SDS011;12731;52.182;8.716;2023-03-03T06:46:14;107.15;;;37.38;;
24567;SDS011;12731;52.182;8.716;2023-03-03T06:48:40;98.93;;;34.78;;
24567;SDS011;12731;52.182;8.716;2023-03-03T06:51:14;96.35;;;33.42;;
24567;SDS011;12731;52.182;8.716;2023-03-03T06:53:54;89.30;;;32.00;;
24567;SDS011;12731;52.182;8.716;2023-03-03T06:56:24;96.28;;;33.67;;
24567;SDS011;12731;52.182;8.716;2023-03-03T06:58:57;88.10;;;32.90;;
24567;SDS011;12731;52.182;8.716;2023-03-03T07:01:24;92.13;;;32.90;;
24567;SDS011;12731;52.182;8.716;2023-03-03T07:03:50;93.57;;;32.05;;
24567;SDS011;12731;52.182;8.716;2023-03-03T07:06:26;90.30;;;33.22;;
24567;SDS011;12731;52.182;8.716;2023-03-03T07:08:53;87.50;;;31.85;;
24567;SDS011;12731;52.182;8.716;2023-03-03T07:11:21;92.32;;;32.88;;
24567;SDS011;12731;52.182;8.716;2023-03-03T07:13:52;93.28;;;33.88;;
24567;SDS011;12731;52.182;8.716;2023-03-03T07:16:23;68.53;;;24.97;;
24567;SDS011;12731;52.182;8.716;2023-03-03T07:18:55;88.07;;;31.08;;
24567;SDS011;12731;52.182;8.716;2023-03-03T07:24:00;81.72;;;29.15;;
24567;SDS011;12731;52.182;8.716;2023-03-03T07:26:30;83.13;;;30.58;;
24567;SDS011;12731;52.182;8.716;2023-03-03T07:29:00;93.97;;;31.35;;
24567;SDS011;12731;52.182;8.716;2023-03-03T07:31:34;86.13;;;30.65;;
24567;SDS011;12731;52.182;8.716;2023-03-03T07:34:04;88.60;;;31.60;;
24567;SDS011;12731;52.182;8.716;2023-03-03T07:36:41;87.75;;;30.98;;
24567;SDS011;12731;52.182;8.716;2023-03-03T07:39:20;85.22;;;32.20;;
24567;SDS011;12731;52.182;8.716;2023-03-03T07:41:51;85.55;;;31.20;;
24567;SDS011;12731;52.182;8.716;2023-03-03T07:44:21;87.45;;;31.77;;
24567;SDS011;12731;52.182;8.716;2023-03-03T07:46:54;87.30;;;32.10;;
24567;SDS011;12731;52.182;8.716;2023-03-03T07:49:55;95.95;;;32.30;;
24567;SDS011;12731;52.182;8.716;2023-03-03T07:52:28;90.38;;;32.13;;
24567;SDS011;12731;52.182;8.716;2023-03-03T07:55:01;85.00;;;31.85;;
24567;SDS011;12731;52.182;8.716;2023-03-03T07:57:45;87.93;;;30.42;;
24567;SDS011;12731;52.182;8.716;2023-03-03T08:07:55;90.38;;;34.30;;
24567;SDS011;12731;52.182;8.716;2023-03-03T08:13:21;91.03;;;32.70;;
24567;SDS011;12731;52.182;8.716;2023-03-03T08:15:50;83.10;;;32.65;;
24567;SDS011;12731;52.182;8.716;2023-03-03T08:18:26;83.43;;;30.38;;
24567;SDS011;12731;52.182;8.716;2023-03-03T08:20:58;79.03;;;30.33;;
24567;SDS011;12731;52.182;8.716;2023-03-03T08:23:25;88.03;;;31.75;;
24567;SDS011;12731;52.182;8.716;2023-03-03T08:25:52;85.22;;;31.50;;
24567;SDS011;12731;52.182;8.716;2023-03-03T08:28:19;86.35;;;31.70;;
24567;SDS011;12731;52.182;8.716;2023-03-03T08:30:45;93.80;;;33.05;;
24567;SDS011;12731;52.182;8.716;2023-03-03T08:33:13;84.50;;;32.25;;
24567;SDS011;12731;52.182;8.716;2023-03-03T08:35:40;86.50;;;33.17;;
24567;SDS011;12731;52.182;8.716;2023-03-03T08:38:07;90.63;;;32.80;;
24567;SDS011;12731;52.182;8.716;2023-03-03T08:40:34;91.93;;;35.10;;
24567;SDS011;12731;52.182;8.716;2023-03-03T08:43:01;86.45;;;32.70;;
24567;SDS011;12731;52.182;8.716;2023-03-03T08:45:27;81.43;;;31.38;;
24567;SDS011;12731;52.182;8.716;2023-03-03T08:47:54;92.05;;;33.28;;
24567;SDS011;12731;52.182;8.716;2023-03-03T08:50:21;81.53;;;32.15;;
24567;SDS011;12731;52.182;8.716;2023-03-03T08:52:48;88.97;;;34.65;;
24567;SDS011;12731;52.182;8.716;2023-03-03T08:55:14;85.22;;;32.15;;
24567;SDS011;12731;52.182;8.716;2023-03-03T08:57:41;86.90;;;33.78;;
24567;SDS011;12731;52.182;8.716;2023-03-03T09:00:08;84.43;;;33.75;;
24567;SDS011;12731;52.182;8.716;2023-03-03T09:02:36;89.43;;;33.95;;
24567;SDS011;12731;52.182;8.716;2023-03-03T09:05:03;97.13;;;34.97;;
24567;SDS011;12731;52.182;8.716;2023-03-03T09:07:30;86.10;;;34.28;;
24567;SDS011;12731;52.182;8.716;2023-03-03T09:09:56;78.50;;;32.13;;
24567;SDS011;12731;52.182;8.716;2023-03-03T09:12:28;83.45;;;34.47;;
24567;SDS011;12731;52.182;8.716;2023-03-03T09:15:10;81.43;;;32.45;;
24567;SDS011;12731;52.182;8.716;2023-03-03T09:17:40;78.88;;;33.38;;
24567;SDS011;12731;52.182;8.716;2023-03-03T09:20:24;82.45;;;33.50;;
24567;SDS011;12731;52.182;8.716;2023-03-03T09:22:54;82.40;;;33.45;;
24567;SDS011;12731;52.182;8.716;2023-03-03T09:25:30;82.40;;;34.45;;
24567;SDS011;12731;52.182;8.716;2023-03-03T09:27:58;82.78;;;31.90;;
24567;SDS011;12731;52.182;8.716;2023-03-03T09:30:35;81.18;;;31.95;;
24567;SDS011;12731;52.182;8.716;2023-03-03T09:33:21;86.18;;;36.55;;
24567;SDS011;12731;52.182;8.716;2023-03-03T09:36:00;89.13;;;37.88;;
24567;SDS011;12731;52.182;8.716;2023-03-03T09:38:30;87.40;;;36.25;;
24567;SDS011;12731;52.182;8.716;2023-03-03T09:52:50;74.28;;;33.88;;
24567;SDS011;12731;52.182;8.716;2023-03-03T09:58:05;82.38;;;33.38;;
24567;SDS011;12731;52.182;8.716;2023-03-03T10:00:51;82.55;;;35.17;;
24567;SDS011;12731;52.182;8.716;2023-03-03T10:03:36;79.22;;;34.40;;
24567;SDS011;12731;52.182;8.716;2023-03-03T10:09:01;71.85;;;29.52;;
24567;SDS011;12731;52.182;8.716;2023-03-03T10:12:19;74.93;;;32.10;;
24567;SDS011;12731;52.182;8.716;2023-03-03T10:14:38;70.05;;;30.70;;
24567;SDS011;12731;52.182;8.716;2023-03-03T10:26:00;78.28;;;31.67;;
24567;SDS011;12731;52.182;8.716;2023-03-03T10:28:40;68.18;;;28.95;;
24567;SDS011;12731;52.182;8.716;2023-03-03T10:31:22;67.57;;;29.48;;
24567;SDS011;12731;52.182;8.716;2023-03-03T10:33:56;67.63;;;29.25;;
24567;SDS011;12731;52.182;8.716;2023-03-03T10:36:34;67.40;;;31.23;;
24567;SDS011;12731;52.182;8.716;2023-03-03T10:39:20;73.15;;;30.67;;
24567;SDS011;12731;52.182;8.716;2023-03-03T10:41:54;67.60;;;29.20;;
24567;SDS011;12731;52.182;8.716;2023-03-03T10:44:44;64.43;;;28.42;;
24567;SDS011;12731;52.182;8.716;2023-03-03T10:47:46;68.38;;;29.33;;
24567;SDS011;12731;52.182;8.716;2023-03-03T10:58:52;67.38;;;29.90;;
24567;SDS011;12731;52.182;8.716;2023-03-03T11:06:48;65.25;;;30.35;;
24567;SDS011;12731;52.182;8.716;2023-03-03T11:12:03;68.45;;;31.30;;
24567;SDS011;12731;52.182;8.716;2023-03-03T11:20:27;62.28;;;29.67;;
24567;SDS011;12731;52.182;8.716;2023-03-03T11:23:09;63.95;;;28.20;;
24567;SDS011;12731;52.182;8.716;2023-03-03T11:26:08;65.22;;;29.38;;
24567;SDS011;12731;52.182;8.716;2023-03-03T11:28:50;66.00;;;28.85;;
24567;SDS011;12731;52.182;8.716;2023-03-03T11:36:48;60.55;;;28.42;;
24567;SDS011;12731;52.182;8.716;2023-03-03T11:39:19;60.38;;;27.42;;
24567;SDS011;12731;52.182;8.716;2023-03-03T11:44:37;62.17;;;28.13;;
24567;SDS011;12731;52.182;8.716;2023-03-03T11:47:30;63.10;;;27.95;;
24567;SDS011;12731;52.182;8.716;2023-03-03T11:50:05;62.53;;;28.35;;
24567;SDS011;12731;52.182;8.716;2023-03-03T11:55:20;54.47;;;26.67;;
24567;SDS011;12731;52.182;8.716;2023-03-03T11:58:12;52.70;;;25.75;;
24567;SDS011;12731;52.182;8.716;2023-03-03T12:00:46;50.85;;;23.70;;
24567;SDS011;12731;52.182;8.716;2023-03-03T12:08:37;48.08;;;23.38;;
24567;SDS011;12731;52.182;8.716;2023-03-03T12:16:35;47.88;;;23.88;;
24567;SDS011;12731;52.182;8.716;2023-03-03T12:19:33;51.38;;;24.33;;
24567;SDS011;12731;52.182;8.716;2023-03-03T12:22:29;50.55;;;24.35;;
24567;SDS011;12731;52.182;8.716;2023-03-03T12:36:09;45.10;;;23.20;;
24567;SDS011;12731;52.182;8.716;2023-03-03T12:50:00;41.25;;;22.33;;
24567;SDS011;12731;52.182;8.716;2023-03-03T12:53:21;39.28;;;20.02;;
24567;SDS011;12731;52.182;8.716;2023-03-03T12:55:43;38.22;;;20.55;;
24567;SDS011;12731;52.182;8.716;2023-03-03T12:58:18;37.58;;;19.00;;
24567;SDS011;12731;52.182;8.716;2023-03-03T13:01:07;37.00;;;19.80;;
24567;SDS011;12731;52.182;8.716;2023-03-03T13:14:36;32.60;;;17.08;;
24567;SDS011;12731;52.182;8.716;2023-03-03T13:19:58;32.72;;;17.42;;
24567;SDS011;12731;52.182;8.716;2023-03-03T13:22:34;31.75;;;17.73;;
24567;SDS011;12731;52.182;8.716;2023-03-03T13:25:06;33.17;;;17.40;;
24567;SDS011;12731;52.182;8.716;2023-03-03T13:27:54;28.25;;;16.67;;
24567;SDS011;12731;52.182;8.716;2023-03-03T13:30:26;29.10;;;16.08;;
24567;SDS011;12731;52.182;8.716;2023-03-03T13:33:38;30.63;;;16.88;;
24567;SDS011;12731;52.182;8.716;2023-03-03T13:36:10;30.95;;;17.05;;
24567;SDS011;12731;52.182;8.716;2023-03-03T13:38:45;30.90;;;16.90;;
24567;SDS011;12731;52.182;8.716;2023-03-03T13:41:27;31.25;;;18.13;;
24567;SDS011;12731;52.182;8.716;2023-03-03T13:43:59;34.25;;;18.35;;
24567;SDS011;12731;52.182;8.716;2023-03-03T13:46:45;33.67;;;18.17;;
24567;SDS011;12731;52.182;8.716;2023-03-03T13:55:07;33.30;;;17.38;;
24567;SDS011;12731;52.182;8.716;2023-03-03T13:57:26;31.05;;;16.85;;
24567;SDS011;12731;52.182;8.716;2023-03-03T14:06:20;29.55;;;15.93;;
24567;SDS011;12731;52.182;8.716;2023-03-03T14:08:57;29.55;;;16.67;;
24567;SDS011;12731;52.182;8.716;2023-03-03T14:11:44;28.63;;;15.88;;
24567;SDS011;12731;52.182;8.716;2023-03-03T14:17:28;29.48;;;16.58;;
24567;SDS011;12731;52.182;8.716;2023-03-03T14:20:18;29.25;;;16.45;;
24567;SDS011;12731;52.182;8.716;2023-03-03T14:22:58;29.27;;;16.52;;
24567;SDS011;12731;52.182;8.716;2023-03-03T14:25:26;30.45;;;16.83;;
24567;SDS011;12731;52.182;8.716;2023-03-03T14:28:22;33.95;;;18.08;;
24567;SDS011;12731;52.182;8.716;2023-03-03T14:30:52;33.70;;;18.85;;
24567;SDS011;12731;52.182;8.716;2023-03-03T14:33:21;36.40;;;18.50;;
24567;SDS011;12731;52.182;8.716;2023-03-03T14:38:23;36.67;;;21.23;;
24567;SDS011;12731;52.182;8.716;2023-03-03T14:41:11;40.00;;;21.90;;
24567;SDS011;12731;52.182;8.716;2023-03-03T14:43:41;38.50;;;20.48;;
24567;SDS011;12731;52.182;8.716;2023-03-03T14:46:29;38.42;;;20.00;;
24567;SDS011;12731;52.182;8.716;2023-03-03T14:48:59;39.55;;;20.70;;
24567;SDS011;12731;52.182;8.716;2023-03-03T14:51:29;39.88;;;19.65;;
24567;SDS011;12731;52.182;8.716;2023-03-03T14:53:59;43.63;;;20.92;;
24567;SDS011;12731;52.182;8.716;2023-03-03T14:56:29;44.30;;;21.35;;
24567;SDS011;12731;52.182;8.716;2023-03-03T14:59:15;39.38;;;19.80;;
24567;SDS011;12731;52.182;8.716;2023-03-03T15:01:46;45.50;;;20.25;;
24567;SDS011;12731;52.182;8.716;2023-03-03T15:09:23;46.90;;;20.30;;
24567;SDS011;12731;52.182;8.716;2023-03-03T15:12:19;41.58;;;20.23;;
24567;SDS011;12731;52.182;8.716;2023-03-03T15:14:50;46.28;;;21.50;;
24567;SDS011;12731;52.182;8.716;2023-03-03T15:17:23;47.45;;;21.55;;
24567;SDS011;12731;52.182;8.716;2023-03-03T15:31:30;41.10;;;20.35;;
24567;SDS011;12731;52.182;8.716;2023-03-03T15:45:44;50.30;;;22.25;;
24567;SDS011;12731;52.182;8.716;2023-03-03T15:48:45;44.22;;;21.65;;
24567;SDS011;12731;52.182;8.716;2023-03-03T15:51:41;47.15;;;22.13;;
24567;SDS011;12731;52.182;8.716;2023-03-03T15:54:35;44.58;;;21.00;;
24567;SDS011;12731;52.182;8.716;2023-03-03T15:57:25;46.20;;;22.15;;
24567;SDS011;12731;52.182;8.716;2023-03-03T16:03:09;47.10;;;21.55;;
24567;SDS011;12731;52.182;8.716;2023-03-03T16:05:54;43.67;;;20.13;;
24567;SDS011;12731;52.182;8.716;2023-03-03T16:08:30;41.28;;;19.55;;
24567;SDS011;12731;52.182;8.716;2023-03-03T16:11:16;46.55;;;21.17;;
24567;SDS011;12731;52.182;8.716;2023-03-03T16:19:48;39.80;;;20.48;;
24567;SDS011;12731;52.182;8.716;2023-03-03T16:28:06;40.20;;;20.05;;
24567;SDS011;12731;52.182;8.716;2023-03-03T16:30:38;43.55;;;20.05;;
24567;SDS011;12731;52.182;8.716;2023-03-03T16:36:08;47.45;;;22.55;;
24567;SDS011;12731;52.182;8.716;2023-03-03T16:38:50;54.28;;;26.75;;
24567;SDS011;12731;52.182;8.716;2023-03-03T16:41:32;53.25;;;27.50;;
24567;SDS011;12731;52.182;8.716;2023-03-03T16:44:29;47.08;;;23.80;;
24567;SDS011;12731;52.182;8.716;2023-03-03T16:47:11;53.03;;;27.77;;
24567;SDS011;12731;52.182;8.716;2023-03-03T16:52:36;46.97;;;23.65;;
24567;SDS011;12731;52.182;8.716;2023-03-03T16:55:27;48.63;;;23.73;;
24567;SDS011;12731;52.182;8.716;2023-03-03T16:58:03;49.65;;;23.65;;
24567;SDS011;12731;52.182;8.716;2023-03-03T17:00:50;45.97;;;22.48;;
24567;SDS011;12731;52.182;8.716;2023-03-03T17:05:54;42.40;;;21.83;;
24567;SDS011;12731;52.182;8.716;2023-03-03T17:08:36;35.65;;;18.10;;
24567;SDS011;12731;52.182;8.716;2023-03-03T17:11:10;48.47;;;21.35;;
24567;SDS011;12731;52.182;8.716;2023-03-03T17:16:59;49.10;;;21.85;;
24567;SDS011;12731;52.182;8.716;2023-03-03T17:19:52;46.97;;;22.83;;
24567;SDS011;12731;52.182;8.716;2023-03-03T17:22:42;46.28;;;22.60;;
24567;SDS011;12731;52.182;8.716;2023-03-03T17:25:32;46.15;;;23.05;;
24567;SDS011;12731;52.182;8.716;2023-03-03T17:28:26;45.60;;;22.63;;
24567;SDS011;12731;52.182;8.716;2023-03-03T17:33:40;49.05;;;23.35;;
24567;SDS011;12731;52.182;8.716;2023-03-03T17:41:35;51.78;;;23.38;;
24567;SDS011;12731;52.182;8.716;2023-03-03T17:44:12;53.22;;;25.63;;
24567;SDS011;12731;52.182;8.716;2023-03-03T17:49:22;52.97;;;25.27;;
24567;SDS011;12731;52.182;8.716;2023-03-03T17:52:14;55.88;;;25.85;;
24567;SDS011;12731;52.182;8.716;2023-03-03T18:03:16;58.67;;;27.35;;
24567;SDS011;12731;52.182;8.716;2023-03-03T18:08:46;62.78;;;31.58;;
24567;SDS011;12731;52.182;8.716;2023-03-03T18:11:52;67.30;;;32.70;;
24567;SDS011;12731;52.182;8.716;2023-03-03T18:25:03;74.85;;;36.42;;
24567;SDS011;12731;52.182;8.716;2023-03-03T18:27:43;74.47;;;35.28;;
24567;SDS011;12731;52.182;8.716;2023-03-03T18:32:57;72.15;;;34.38;;
24567;SDS011;12731;52.182;8.716;2023-03-03T18:38:17;69.55;;;33.67;;
24567;SDS011;12731;52.182;8.716;2023-03-03T18:40:55;62.67;;;32.72;;
24567;SDS011;12731;52.182;8.716;2023-03-03T18:43:39;60.97;;;32.47;;
24567;SDS011;12731;52.182;8.716;2023-03-03T18:48:55;63.10;;;31.63;;
24567;SDS011;12731;52.182;8.716;2023-03-03T19:02:28;62.53;;;30.55;;
24567;SDS011;12731;52.182;8.716;2023-03-03T19:05:07;59.75;;;30.52;;